createdAt,value
2022-11-03T00:00:41.331Z,6.9
2022-11-03T00:01:47.628Z,6.9
2022-11-03T00:02:53.889Z,6.9
2022-11-03T00:04:00.142Z,6.9
2022-11-03T00:05:06.425Z,6.9
2022-11-03T00:06:12.688Z,6.8
2022-11-03T00:07:18.970Z,6.9
2022-11-03T00:08:25.232Z,6.8
2022-11-03T00:09:31.511Z,6.8
2022-11-03T00:10:37.780Z,6.9
2022-11-03T00:11:44.055Z,6.9
2022-11-03T00:12:50.323Z,6.9
2022-11-03T00:13:55.629Z,6.9
2022-11-03T00:15:01.886Z,6.8
2022-11-03T00:16:08.156Z,6.8
2022-11-03T00:17:14.436Z,6.7
2022-11-03T00:18:20.702Z,6.7
2022-11-03T00:19:26.984Z,6.7
2022-11-03T00:20:33.244Z,6.6
2022-11-03T00:21:38.541Z,6.6
2022-11-03T00:22:43.853Z,6.6
2022-11-03T00:23:50.126Z,6.6
2022-11-03T00:24:56.405Z,6.6
2022-11-03T00:26:02.648Z,6.6
2022-11-03T00:27:07.952Z,6.6
2022-11-03T00:28:13.231Z,6.7
2022-11-03T00:29:19.542Z,6.7
2022-11-03T00:30:25.780Z,6.7
2022-11-03T00:31:32.051Z,6.7
2022-11-03T00:32:38.317Z,6.7
2022-11-03T00:33:44.593Z,6.7
2022-11-03T00:34:50.863Z,6.7
2022-11-03T00:35:57.138Z,6.7
2022-11-03T00:37:03.423Z,6.6
2022-11-03T00:38:09.682Z,6.6
2022-11-03T00:39:15.966Z,6.5
2022-11-03T00:40:22.238Z,6.5
2022-11-03T00:41:28.519Z,6.5
2022-11-03T00:42:33.784Z,6.5
2022-11-03T00:43:40.075Z,6.5
2022-11-03T00:44:46.337Z,6.5
2022-11-03T00:45:52.596Z,6.5
2022-11-03T00:46:58.871Z,6.5
2022-11-03T00:48:05.146Z,6.6
2022-11-03T00:49:11.433Z,6.6
2022-11-03T00:50:16.739Z,6.6
2022-11-03T00:51:22.027Z,6.6
2022-11-03T00:52:28.290Z,6.7
2022-11-03T00:53:33.571Z,6.7
2022-11-03T00:54:38.868Z,6.7
2022-11-03T00:55:45.134Z,6.7
2022-11-03T00:56:51.473Z,6.7
2022-11-03T00:57:57.677Z,6.7
2022-11-03T00:59:03.977Z,6.7
2022-11-03T01:00:10.232Z,6.7
2022-11-03T01:01:16.499Z,6.8
2022-11-03T01:02:22.776Z,6.7
2022-11-03T01:03:29.037Z,6.7
2022-11-03T01:04:35.310Z,6.8
2022-11-03T01:05:41.600Z,6.8
2022-11-03T01:06:47.862Z,6.7
2022-11-03T01:07:54.163Z,6.7
2022-11-03T01:08:59.408Z,6.6
2022-11-03T01:10:05.732Z,6.6
2022-11-03T01:11:11.977Z,6.6
2022-11-03T01:12:18.235Z,6.6
2022-11-03T01:13:24.511Z,6.6
2022-11-03T01:14:30.795Z,6.6
2022-11-03T01:15:37.061Z,6.7
2022-11-03T01:16:42.356Z,6.7
2022-11-03T01:17:47.668Z,6.7
2022-11-03T01:18:53.907Z,6.7
2022-11-03T01:20:00.281Z,6.8
2022-11-03T01:21:05.474Z,6.7
2022-11-03T01:22:10.797Z,6.8
2022-11-03T01:23:17.040Z,6.8
2022-11-03T01:24:23.348Z,6.8
2022-11-03T01:25:29.575Z,6.8
2022-11-03T01:26:35.852Z,6.8
2022-11-03T01:27:42.127Z,6.9
2022-11-03T01:28:48.391Z,6.9
2022-11-03T01:29:54.700Z,6.9
2022-11-03T01:31:00.941Z,6.9
2022-11-03T01:32:07.208Z,6.9
2022-11-03T01:33:13.487Z,6.9
2022-11-03T01:34:19.779Z,6.9
2022-11-03T01:35:26.028Z,6.9
2022-11-03T01:36:32.303Z,6.8
2022-11-03T01:37:37.587Z,6.8
2022-11-03T01:38:43.856Z,6.8
2022-11-03T01:39:50.148Z,6.8
2022-11-03T01:40:56.403Z,6.8
2022-11-03T01:42:02.703Z,6.8
2022-11-03T01:43:08.949Z,6.8
2022-11-03T01:44:14.268Z,6.8
2022-11-03T01:45:19.545Z,6.8
2022-11-03T01:46:24.846Z,6.9
2022-11-03T01:47:30.237Z,6.9
2022-11-03T01:48:36.395Z,6.9
2022-11-03T01:49:42.683Z,6.9
2022-11-03T01:50:48.940Z,6.9
2022-11-03T01:51:55.238Z,6.9
2022-11-03T01:53:01.496Z,6.9
2022-11-03T01:54:07.758Z,6.9
2022-11-03T01:55:14.037Z,6.8
2022-11-03T01:56:20.307Z,6.8
2022-11-03T01:57:26.585Z,6.8
2022-11-03T01:58:32.852Z,6.8
2022-11-03T01:59:39.118Z,6.8
2022-11-03T02:00:45.387Z,6.8
2022-11-03T02:01:50.690Z,6.8
2022-11-03T02:02:56.984Z,6.8
2022-11-03T02:04:03.223Z,6.9
2022-11-03T02:05:09.503Z,6.9
2022-11-03T02:06:15.773Z,6.9
2022-11-03T02:07:22.052Z,6.9
2022-11-03T02:08:28.310Z,6.9
2022-11-03T02:09:33.618Z,6.9
2022-11-03T02:10:38.903Z,6.9
2022-11-03T02:11:44.200Z,6.9
2022-11-03T02:12:49.487Z,7
2022-11-03T02:13:55.755Z,7
2022-11-03T02:15:02.055Z,7
2022-11-03T02:16:08.302Z,7
2022-11-03T02:17:14.577Z,6.9
2022-11-03T02:18:20.855Z,7
2022-11-03T02:19:27.122Z,6.9
2022-11-03T02:20:33.399Z,6.9
2022-11-03T02:21:39.726Z,7
2022-11-03T02:22:45.937Z,7
2022-11-03T02:23:52.206Z,7
2022-11-03T02:24:58.558Z,7
2022-11-03T02:26:04.750Z,7
2022-11-03T02:27:10.073Z,7
2022-11-03T02:28:16.310Z,6.9
2022-11-03T02:29:22.585Z,6.9
2022-11-03T02:30:28.873Z,6.9
2022-11-03T02:31:35.132Z,6.9
2022-11-03T02:32:41.397Z,6.9
2022-11-03T02:33:47.690Z,6.9
2022-11-03T02:34:53.948Z,6.9
2022-11-03T02:36:00.234Z,6.9
2022-11-03T02:37:06.495Z,6.9
2022-11-03T02:38:12.774Z,6.9
2022-11-03T02:39:19.030Z,6.9
2022-11-03T02:40:24.350Z,6.9
2022-11-03T02:41:29.654Z,6.9
2022-11-03T02:42:35.904Z,6.9
2022-11-03T02:43:41.213Z,6.9
2022-11-03T02:44:46.531Z,6.9
2022-11-03T02:45:52.753Z,6.9
2022-11-03T02:46:59.026Z,6.9
2022-11-03T02:48:05.298Z,6.9
2022-11-03T02:49:11.582Z,6.9
2022-11-03T02:50:17.878Z,6.9
2022-11-03T02:51:24.117Z,6.9
2022-11-03T02:52:30.417Z,6.9
2022-11-03T02:53:36.668Z,6.9
2022-11-03T02:54:42.951Z,6.9
2022-11-03T02:55:49.199Z,6.9
2022-11-03T02:56:55.477Z,6.9
2022-11-03T02:58:01.745Z,6.8
2022-11-03T02:59:07.036Z,6.8
2022-11-03T03:00:13.367Z,6.8
2022-11-03T03:01:19.575Z,6.8
2022-11-03T03:02:25.910Z,6.8
2022-11-03T03:03:32.136Z,6.8
2022-11-03T03:04:38.408Z,6.8
2022-11-03T03:05:44.667Z,6.8
2022-11-03T03:06:49.988Z,6.8
2022-11-03T03:07:55.258Z,6.8
2022-11-03T03:09:01.531Z,6.8
2022-11-03T03:10:07.807Z,6.8
2022-11-03T03:11:13.103Z,6.8
2022-11-03T03:12:18.389Z,6.8
2022-11-03T03:13:24.665Z,6.8
2022-11-03T03:14:30.935Z,6.8
2022-11-03T03:15:37.209Z,6.8
2022-11-03T03:16:43.479Z,6.8
2022-11-03T03:17:48.770Z,6.8
2022-11-03T03:18:55.049Z,6.8
2022-11-03T03:20:01.315Z,6.8
2022-11-03T03:21:07.589Z,6.8
2022-11-03T03:22:13.858Z,6.8
2022-11-03T03:23:20.130Z,6.8
2022-11-03T03:24:26.404Z,6.7
2022-11-03T03:25:32.683Z,6.7
2022-11-03T03:26:38.948Z,6.7
2022-11-03T03:27:45.248Z,6.7
2022-11-03T03:28:51.517Z,6.7
2022-11-03T03:29:57.762Z,6.7
2022-11-03T03:31:04.039Z,6.7
2022-11-03T03:32:09.336Z,6.7
2022-11-03T03:33:15.610Z,6.7
2022-11-03T03:34:20.906Z,6.7
2022-11-03T03:35:26.179Z,6.7
2022-11-03T03:36:31.482Z,6.8
2022-11-03T03:37:36.775Z,6.8
2022-11-03T03:38:43.047Z,6.8
2022-11-03T03:39:49.355Z,6.8
2022-11-03T03:40:55.688Z,6.7
2022-11-03T03:42:01.914Z,6.6
2022-11-03T03:43:08.147Z,6.5
2022-11-03T03:44:14.408Z,6.4
2022-11-03T03:45:20.764Z,6.3
2022-11-03T03:46:26.951Z,6.3
2022-11-03T03:47:33.227Z,6.3
2022-11-03T03:48:39.492Z,6.3
2022-11-03T03:49:45.777Z,6.3
2022-11-03T03:50:52.037Z,6.4
2022-11-03T03:51:57.424Z,6.4
2022-11-03T03:53:03.608Z,6.4
2022-11-03T03:54:09.873Z,6.5
2022-11-03T03:55:16.153Z,6.5
2022-11-03T03:56:22.443Z,6.5
2022-11-03T03:57:28.686Z,6.5
2022-11-03T03:58:34.960Z,6.6
2022-11-03T03:59:40.263Z,6.6
2022-11-03T04:00:45.548Z,6.6
2022-11-03T04:01:51.821Z,6.6
2022-11-03T04:02:57.189Z,6.6
2022-11-03T04:04:02.438Z,6.6
2022-11-03T04:05:08.677Z,6.5
2022-11-03T04:06:14.970Z,6.5
2022-11-03T04:07:21.219Z,6.5
2022-11-03T04:08:27.514Z,6.6
2022-11-03T04:09:33.772Z,6.6
2022-11-03T04:10:40.049Z,6.6
2022-11-03T04:11:46.308Z,6.6
2022-11-03T04:12:52.612Z,6.6
2022-11-03T04:13:58.859Z,6.6
2022-11-03T04:15:05.132Z,6.6
2022-11-03T04:16:11.399Z,6.6
2022-11-03T04:17:17.669Z,6.5
2022-11-03T04:18:22.973Z,6.6
2022-11-03T04:19:29.265Z,6.6
2022-11-03T04:20:35.505Z,6.6
2022-11-03T04:21:41.774Z,6.5
2022-11-03T04:22:48.048Z,6.5
2022-11-03T04:23:54.319Z,6.5
2022-11-03T04:25:00.592Z,6.5
2022-11-03T04:26:05.944Z,6.5
2022-11-03T04:27:11.182Z,6.5
2022-11-03T04:28:17.497Z,6.5
2022-11-03T04:29:22.769Z,6.5
2022-11-03T04:30:28.092Z,6.6
2022-11-03T04:31:34.318Z,6.5
2022-11-03T04:32:40.583Z,6.4
2022-11-03T04:33:46.860Z,6.3
2022-11-03T04:34:53.172Z,6.2
2022-11-03T04:35:59.497Z,6.2
2022-11-03T04:37:05.677Z,6.2
2022-11-03T04:38:11.961Z,6.1
2022-11-03T04:39:18.225Z,6.2
2022-11-03T04:40:24.501Z,6.2
2022-11-03T04:41:30.766Z,6.2
2022-11-03T04:42:37.071Z,6.3
2022-11-03T04:43:43.308Z,6.3
2022-11-03T04:44:48.620Z,6.3
2022-11-03T04:45:54.896Z,6.3
2022-11-03T04:47:01.140Z,6.4
2022-11-03T04:48:07.414Z,6.4
2022-11-03T04:49:13.684Z,6.4
2022-11-03T04:50:19.957Z,6.4
2022-11-03T04:51:26.232Z,6.4
2022-11-03T04:52:31.608Z,6.4
2022-11-03T04:53:36.832Z,6.4
2022-11-03T04:54:42.113Z,6.4
2022-11-03T04:55:47.408Z,6.4
2022-11-03T04:56:53.685Z,6.4
2022-11-03T04:58:00.001Z,6.4
2022-11-03T04:59:06.256Z,6.4
2022-11-03T05:00:12.498Z,6.4
2022-11-03T05:01:18.775Z,6.5
2022-11-03T05:02:25.047Z,6.4
2022-11-03T05:03:31.304Z,6.5
2022-11-03T05:04:37.591Z,6.5
2022-11-03T05:05:43.855Z,6.5
2022-11-03T05:06:50.131Z,6.5
2022-11-03T05:07:56.396Z,6.5
2022-11-03T05:09:02.667Z,6.6
2022-11-03T05:10:07.961Z,6.6
2022-11-03T05:11:14.242Z,6.6
2022-11-03T05:12:20.509Z,6.6
2022-11-03T05:13:26.778Z,6.6
2022-11-03T05:14:33.046Z,6.6
2022-11-03T05:15:39.318Z,6.6
2022-11-03T05:16:45.642Z,6.6
2022-11-03T05:17:50.906Z,6.6
2022-11-03T05:18:56.206Z,6.6
2022-11-03T05:20:01.509Z,6.6
2022-11-03T05:21:06.759Z,6.6
2022-11-03T05:22:13.038Z,6.6
2022-11-03T05:23:19.317Z,6.6
2022-11-03T05:24:25.609Z,6.6
2022-11-03T05:25:31.853Z,6.6
2022-11-03T05:26:38.124Z,6.6
2022-11-03T05:27:44.403Z,6.7
2022-11-03T05:28:50.666Z,6.7
2022-11-03T05:29:56.948Z,6.7
2022-11-03T05:31:03.213Z,6.7
2022-11-03T05:32:09.485Z,6.7
2022-11-03T05:33:15.790Z,6.7
2022-11-03T05:34:22.082Z,6.7
2022-11-03T05:35:27.336Z,6.7
2022-11-03T05:36:33.583Z,6.7
2022-11-03T05:37:39.950Z,6.7
2022-11-03T05:38:46.141Z,6.7
2022-11-03T05:39:52.417Z,6.7
2022-11-03T05:40:58.779Z,6.7
2022-11-03T05:42:04.954Z,6.7
2022-11-03T05:43:10.353Z,6.8
2022-11-03T05:44:15.551Z,6.7
2022-11-03T05:45:20.855Z,6.6
2022-11-03T05:46:26.126Z,6.5
2022-11-03T05:47:32.417Z,6.4
2022-11-03T05:48:38.692Z,6.3
2022-11-03T05:49:44.944Z,6.3
2022-11-03T05:50:51.266Z,6.2
2022-11-03T05:51:57.518Z,6.2
2022-11-03T05:53:03.759Z,6.1
2022-11-03T05:54:10.048Z,6.1
2022-11-03T05:55:16.339Z,6.1
2022-11-03T05:56:22.596Z,6.1
2022-11-03T05:57:28.891Z,6.2
2022-11-03T05:58:35.183Z,6.2
2022-11-03T05:59:41.448Z,6.2
2022-11-03T06:00:46.682Z,6.2
2022-11-03T06:01:52.959Z,6.2
2022-11-03T06:02:59.235Z,6.2
2022-11-03T06:04:05.493Z,6.1
2022-11-03T06:05:11.767Z,6.1
2022-11-03T06:06:18.103Z,6.1
2022-11-03T06:07:24.311Z,6
2022-11-03T06:08:29.665Z,5.9
2022-11-03T06:09:34.936Z,5.9
2022-11-03T06:10:40.228Z,5.9
2022-11-03T06:11:45.488Z,5.8
2022-11-03T06:12:51.761Z,5.8
2022-11-03T06:13:58.069Z,5.8
2022-11-03T06:15:04.329Z,5.8
2022-11-03T06:16:10.573Z,5.9
2022-11-03T06:17:16.880Z,5.9
2022-11-03T06:18:23.121Z,5.9
2022-11-03T06:19:29.395Z,5.9
2022-11-03T06:20:35.724Z,5.9
2022-11-03T06:21:41.935Z,5.9
2022-11-03T06:22:48.207Z,5.9
2022-11-03T06:23:54.479Z,5.9
2022-11-03T06:25:00.753Z,5.9
2022-11-03T06:26:06.040Z,5.9
2022-11-03T06:27:12.341Z,5.9
2022-11-03T06:28:18.591Z,5.9
2022-11-03T06:29:24.903Z,5.9
2022-11-03T06:30:31.127Z,5.9
2022-11-03T06:31:37.399Z,6
2022-11-03T06:32:43.668Z,6
2022-11-03T06:33:48.986Z,6
2022-11-03T06:34:54.284Z,6.1
2022-11-03T06:35:59.562Z,6.1
2022-11-03T06:37:04.847Z,6.1
2022-11-03T06:38:11.119Z,6.1
2022-11-03T06:39:17.466Z,6.1
2022-11-03T06:40:23.663Z,6
2022-11-03T06:41:29.991Z,6
2022-11-03T06:42:36.233Z,6
2022-11-03T06:43:42.507Z,6
2022-11-03T06:44:48.756Z,6
2022-11-03T06:45:55.034Z,6
2022-11-03T06:47:01.304Z,6.1
2022-11-03T06:48:07.574Z,6.1
2022-11-03T06:49:13.849Z,6.1
2022-11-03T06:50:20.179Z,6.1
2022-11-03T06:51:25.408Z,6.1
2022-11-03T06:52:31.681Z,6.2
2022-11-03T06:53:37.953Z,6.2
2022-11-03T06:54:44.218Z,6.2
2022-11-03T06:55:50.494Z,6.2
2022-11-03T06:56:56.866Z,6.2
2022-11-03T06:58:03.094Z,6.2
2022-11-03T06:59:09.344Z,6.3
2022-11-03T07:00:14.626Z,6.3
2022-11-03T07:01:19.904Z,6.3
2022-11-03T07:02:26.187Z,6.3
2022-11-03T07:03:31.475Z,6.3
2022-11-03T07:04:36.778Z,6.3
2022-11-03T07:05:43.044Z,6.4
2022-11-03T07:06:49.313Z,6.3
2022-11-03T07:07:55.611Z,6.3
2022-11-03T07:09:01.855Z,6.3
2022-11-03T07:10:08.126Z,6.3
2022-11-03T07:11:14.471Z,6.3
2022-11-03T07:12:20.672Z,6.3
2022-11-03T07:13:26.960Z,6.2
2022-11-03T07:14:33.260Z,6.2
2022-11-03T07:15:39.520Z,6.1
2022-11-03T07:16:45.763Z,6.1
2022-11-03T07:17:52.083Z,6.1
2022-11-03T07:18:57.347Z,6.1
2022-11-03T07:20:03.604Z,6.2
2022-11-03T07:21:09.879Z,6.2
2022-11-03T07:22:16.168Z,6.2
2022-11-03T07:23:22.408Z,6.3
2022-11-03T07:24:28.684Z,6.3
2022-11-03T07:25:34.958Z,6.4
2022-11-03T07:26:40.247Z,6.4
2022-11-03T07:27:45.538Z,6.4
2022-11-03T07:28:50.844Z,6.5
2022-11-03T07:29:56.151Z,6.5
2022-11-03T07:31:02.453Z,6.5
2022-11-03T07:32:08.675Z,6.6
2022-11-03T07:33:14.952Z,6.6
2022-11-03T07:34:21.225Z,6.6
2022-11-03T07:35:27.553Z,6.6
2022-11-03T07:36:33.832Z,6.6
2022-11-03T07:37:40.032Z,6.7
2022-11-03T07:38:46.336Z,6.7
2022-11-03T07:39:52.576Z,6.7
2022-11-03T07:40:58.875Z,6.7
2022-11-03T07:42:05.118Z,6.8
2022-11-03T07:43:11.398Z,6.7
2022-11-03T07:44:16.695Z,6.7
2022-11-03T07:45:22.955Z,6.6
2022-11-03T07:46:29.257Z,6.6
2022-11-03T07:47:35.497Z,6.6
2022-11-03T07:48:41.776Z,6.7
2022-11-03T07:49:48.075Z,6.7
2022-11-03T07:50:54.317Z,6.7
2022-11-03T07:51:59.665Z,6.7
2022-11-03T07:53:04.902Z,6.7
2022-11-03T07:54:10.204Z,6.7
2022-11-03T07:55:15.491Z,6.7
2022-11-03T07:56:21.765Z,6.7
2022-11-03T07:57:28.045Z,6.7
2022-11-03T07:58:34.315Z,6.7
2022-11-03T07:59:40.575Z,6.7
2022-11-03T08:00:46.849Z,6.7
2022-11-03T08:01:53.126Z,6.8
2022-11-03T08:02:59.395Z,6.8
2022-11-03T08:04:05.682Z,6.9
2022-11-03T08:05:12.059Z,6.8
2022-11-03T08:06:18.217Z,6.8
2022-11-03T08:07:24.482Z,6.7
2022-11-03T08:08:30.824Z,6.6
2022-11-03T08:09:36.077Z,6.5
2022-11-03T08:10:42.334Z,6.4
2022-11-03T08:11:48.616Z,6.3
2022-11-03T08:12:54.902Z,6.3
2022-11-03T08:14:01.160Z,6.4
2022-11-03T08:15:07.409Z,6.4
2022-11-03T08:16:13.682Z,6.4
2022-11-03T08:17:19.000Z,6.5
2022-11-03T08:18:24.273Z,6.5
2022-11-03T08:19:30.532Z,6.6
2022-11-03T08:20:36.810Z,6.6
2022-11-03T08:21:43.082Z,6.7
2022-11-03T08:22:49.352Z,6.7
2022-11-03T08:23:55.703Z,6.8
2022-11-03T08:25:01.900Z,6.8
2022-11-03T08:26:08.170Z,6.8
2022-11-03T08:27:14.466Z,6.8
2022-11-03T08:28:20.715Z,6.8
2022-11-03T08:29:27.027Z,6.8
2022-11-03T08:30:33.262Z,6.8
2022-11-03T08:31:39.576Z,6.9
2022-11-03T08:32:44.821Z,6.9
2022-11-03T08:33:51.090Z,6.9
2022-11-03T08:34:57.378Z,7
2022-11-03T08:36:03.645Z,7
2022-11-03T08:37:09.951Z,7
2022-11-03T08:38:16.186Z,7
2022-11-03T08:39:22.456Z,7.1
2022-11-03T08:40:27.840Z,7.1
2022-11-03T08:41:33.113Z,7.1
2022-11-03T08:42:38.374Z,7.1
2022-11-03T08:43:43.652Z,7.1
2022-11-03T08:44:50.012Z,7.1
2022-11-03T08:45:56.169Z,7.1
2022-11-03T08:47:02.535Z,7.1
2022-11-03T08:48:08.718Z,7.2
2022-11-03T08:49:14.998Z,7.2
2022-11-03T08:50:21.350Z,7.2
2022-11-03T08:51:27.531Z,7.2
2022-11-03T08:52:33.835Z,7.2
2022-11-03T08:53:40.102Z,7.2
2022-11-03T08:54:46.381Z,7.2
2022-11-03T08:55:52.620Z,7.2
2022-11-03T08:56:58.932Z,7.2
2022-11-03T08:58:04.203Z,7.2
2022-11-03T08:59:10.469Z,7.1
2022-11-03T09:00:16.732Z,7
2022-11-03T09:01:23.025Z,6.9
2022-11-03T09:02:29.288Z,6.8
2022-11-03T09:03:35.545Z,6.6
2022-11-03T09:04:41.819Z,6.5
2022-11-03T09:05:47.119Z,6.5
2022-11-03T09:06:52.407Z,6.5
2022-11-03T09:07:58.678Z,6.5
2022-11-03T09:09:03.986Z,6.5
2022-11-03T09:10:09.267Z,6.5
2022-11-03T09:11:15.543Z,6.5
2022-11-03T09:12:20.834Z,6.4
2022-11-03T09:13:26.125Z,6.4
2022-11-03T09:14:32.394Z,6.4
2022-11-03T09:15:38.663Z,6.4
2022-11-03T09:16:44.937Z,6.4
2022-11-03T09:17:51.217Z,6.3
2022-11-03T09:18:57.484Z,6.3
2022-11-03T09:20:03.763Z,6.3
2022-11-03T09:21:10.029Z,6.4
2022-11-03T09:22:16.316Z,6.4
2022-11-03T09:23:22.593Z,6.5
2022-11-03T09:24:28.852Z,6.6
2022-11-03T09:25:35.110Z,6.6
2022-11-03T09:26:41.385Z,6.7
2022-11-03T09:27:46.675Z,6.8
2022-11-03T09:28:52.961Z,6.8
2022-11-03T09:29:59.227Z,6.9
2022-11-03T09:31:05.494Z,6.9
2022-11-03T09:32:11.769Z,7
2022-11-03T09:33:18.044Z,7.1
2022-11-03T09:34:24.316Z,7.1
2022-11-03T09:35:29.635Z,7.1
2022-11-03T09:36:34.898Z,7.2
2022-11-03T09:37:40.218Z,7.2
2022-11-03T09:38:45.513Z,7.2
2022-11-03T09:39:51.791Z,7.2
2022-11-03T09:40:58.072Z,7.1
2022-11-03T09:42:04.326Z,7
2022-11-03T09:43:10.607Z,6.9
2022-11-03T09:44:16.971Z,6.9
2022-11-03T09:45:23.283Z,6.9
2022-11-03T09:46:29.389Z,6.9
2022-11-03T09:47:35.812Z,6.9
2022-11-03T09:48:42.061Z,6.9
2022-11-03T09:49:48.204Z,7
2022-11-03T09:50:54.581Z,7
2022-11-03T09:52:00.879Z,7
2022-11-03T09:53:06.185Z,7.1
2022-11-03T09:54:12.312Z,7
2022-11-03T09:55:18.595Z,6.9
2022-11-03T09:56:24.888Z,6.8
2022-11-03T09:57:31.121Z,6.9
2022-11-03T09:58:37.540Z,6.9
2022-11-03T09:59:43.671Z,6.9
2022-11-03T10:00:50.053Z,6.8
2022-11-03T10:01:55.263Z,6.9
2022-11-03T10:03:00.542Z,6.9
2022-11-03T10:04:05.833Z,7
2022-11-03T10:05:11.151Z,7
2022-11-03T10:06:17.394Z,7.1
2022-11-03T10:07:23.665Z,7
2022-11-03T10:08:29.929Z,7
2022-11-03T10:09:36.216Z,6.9
2022-11-03T10:10:42.477Z,7
2022-11-03T10:11:48.751Z,7
2022-11-03T10:12:55.020Z,7
2022-11-03T10:14:01.296Z,7.1
2022-11-03T10:15:07.575Z,7.1
2022-11-03T10:16:13.837Z,7.1
2022-11-03T10:17:20.112Z,7.1
2022-11-03T10:18:26.386Z,7
2022-11-03T10:19:31.672Z,6.9
2022-11-03T10:20:37.942Z,6.9
2022-11-03T10:21:44.235Z,6.9
2022-11-03T10:22:50.488Z,6.9
2022-11-03T10:23:56.796Z,6.9
2022-11-03T10:25:03.034Z,7
2022-11-03T10:26:09.303Z,7
2022-11-03T10:27:14.609Z,7.1
2022-11-03T10:28:19.899Z,7.1
2022-11-03T10:29:25.210Z,7
2022-11-03T10:30:30.514Z,7
2022-11-03T10:31:36.783Z,7
2022-11-03T10:32:43.026Z,7.1
2022-11-03T10:33:49.295Z,7.1
2022-11-03T10:34:55.567Z,7.1
2022-11-03T10:36:01.845Z,7.1
2022-11-03T10:37:08.113Z,7.2
2022-11-03T10:38:14.405Z,7.2
2022-11-03T10:39:20.657Z,7.2
2022-11-03T10:40:26.927Z,7.2
2022-11-03T10:41:32.243Z,7.3
2022-11-03T10:42:38.531Z,7.3
2022-11-03T10:43:44.768Z,7.3
2022-11-03T10:44:51.067Z,7.4
2022-11-03T10:45:57.319Z,7.3
2022-11-03T10:47:03.589Z,7.3
2022-11-03T10:48:09.858Z,7.3
2022-11-03T10:49:16.128Z,7.4
2022-11-03T10:50:22.405Z,7.4
2022-11-03T10:51:28.678Z,7.5
2022-11-03T10:52:33.973Z,7.5
2022-11-03T10:53:39.260Z,7.5
2022-11-03T10:54:45.529Z,7.6
2022-11-03T10:55:51.813Z,7.6
2022-11-03T10:56:58.073Z,7.6
2022-11-03T10:58:04.483Z,7.7
2022-11-03T10:59:10.616Z,7.7
2022-11-03T11:00:16.925Z,7.7
2022-11-03T11:01:23.206Z,7.8
2022-11-03T11:02:29.489Z,7.7
2022-11-03T11:03:35.710Z,7.7
2022-11-03T11:04:41.978Z,7.6
2022-11-03T11:05:48.254Z,7.6
2022-11-03T11:06:54.536Z,7.5
2022-11-03T11:07:59.832Z,7.4
2022-11-03T11:09:06.080Z,7.4
2022-11-03T11:10:12.486Z,7.3
2022-11-03T11:11:18.633Z,7.3
2022-11-03T11:12:24.948Z,7.3
2022-11-03T11:13:31.210Z,7.2
2022-11-03T11:14:37.443Z,7.2
2022-11-03T11:15:42.775Z,7.1
2022-11-03T11:16:48.034Z,7
2022-11-03T11:17:53.335Z,7
2022-11-03T11:18:58.620Z,7.1
2022-11-03T11:20:04.920Z,7.1
2022-11-03T11:21:11.182Z,7.2
2022-11-03T11:22:17.438Z,7.2
2022-11-03T11:23:23.713Z,7.3
2022-11-03T11:24:29.994Z,7.4
2022-11-03T11:25:36.294Z,7.4
2022-11-03T11:26:42.539Z,7.4
2022-11-03T11:27:48.793Z,7.5
2022-11-03T11:28:55.066Z,7.5
2022-11-03T11:30:01.361Z,7.4
2022-11-03T11:31:07.628Z,7.4
2022-11-03T11:32:13.917Z,7.3
2022-11-03T11:33:19.179Z,7.3
2022-11-03T11:34:25.444Z,7.3
2022-11-03T11:35:31.717Z,7.4
2022-11-03T11:36:37.986Z,7.4
2022-11-03T11:37:44.264Z,7.4
2022-11-03T11:38:50.569Z,7.3
2022-11-03T11:39:56.830Z,7.3
2022-11-03T11:41:02.106Z,7.3
2022-11-03T11:42:07.404Z,7.3
2022-11-03T11:43:12.723Z,7.3
2022-11-03T11:44:17.983Z,7.3
2022-11-03T11:45:23.312Z,7.2
2022-11-03T11:46:28.562Z,7.2
2022-11-03T11:47:34.849Z,7.3
2022-11-03T11:48:41.116Z,7.3
2022-11-03T11:49:47.381Z,7.3
2022-11-03T11:50:53.678Z,7.4
2022-11-03T11:51:59.951Z,7.4
2022-11-03T11:53:06.195Z,7.4
2022-11-03T11:54:12.467Z,7.4
2022-11-03T11:55:18.739Z,7.4
2022-11-03T11:56:25.015Z,7.4
2022-11-03T11:57:31.290Z,7.4
2022-11-03T11:58:37.597Z,7.4
2022-11-03T11:59:43.858Z,7.4
2022-11-03T12:00:49.130Z,7.5
2022-11-03T12:01:55.390Z,7.5
2022-11-03T12:03:01.695Z,7.4
2022-11-03T12:04:07.963Z,7.4
2022-11-03T12:05:14.208Z,7.4
2022-11-03T12:06:20.483Z,7.4
2022-11-03T12:07:26.787Z,7.4
2022-11-03T12:08:32.091Z,7.4
2022-11-03T12:09:37.336Z,7.4
2022-11-03T12:10:42.720Z,7.4
2022-11-03T12:11:47.948Z,7.4
2022-11-03T12:12:54.195Z,7.4
2022-11-03T12:14:00.478Z,7.4
2022-11-03T12:15:06.743Z,7.5
2022-11-03T12:16:13.028Z,7.5
2022-11-03T12:17:19.282Z,7.6
2022-11-03T12:18:25.560Z,7.6
2022-11-03T12:19:31.829Z,7.6
2022-11-03T12:20:38.135Z,7.6
2022-11-03T12:21:44.372Z,7.8
2022-11-03T12:22:50.649Z,7.7
2022-11-03T12:23:56.975Z,7.8
2022-11-03T12:25:03.187Z,7.8
2022-11-03T12:26:08.477Z,7.9
2022-11-03T12:27:14.751Z,7.9
2022-11-03T12:28:21.023Z,7.9
2022-11-03T12:29:27.310Z,7.9
2022-11-03T12:30:33.573Z,7.9
2022-11-03T12:31:39.842Z,7.9
2022-11-03T12:32:46.113Z,7.9
2022-11-03T12:33:51.410Z,7.9
2022-11-03T12:34:56.699Z,7.9
2022-11-03T12:36:02.965Z,7.9
2022-11-03T12:37:08.265Z,7.8
2022-11-03T12:38:13.560Z,7.8
2022-11-03T12:39:19.833Z,7.7
2022-11-03T12:40:26.105Z,7.7
2022-11-03T12:41:32.370Z,7.7
2022-11-03T12:42:38.643Z,7.7
2022-11-03T12:43:44.915Z,7.7
2022-11-03T12:44:51.193Z,7.7
2022-11-03T12:45:57.472Z,7.7
2022-11-03T12:47:03.731Z,7.7
2022-11-03T12:48:10.009Z,7.7
2022-11-03T12:49:16.300Z,7.7
2022-11-03T12:50:22.553Z,7.7
2022-11-03T12:51:28.825Z,7.7
2022-11-03T12:52:34.114Z,7.7
2022-11-03T12:53:40.384Z,7.7
2022-11-03T12:54:46.710Z,7.8
2022-11-03T12:55:52.936Z,7.8
2022-11-03T12:56:59.207Z,7.8
2022-11-03T12:58:05.475Z,7.8
2022-11-03T12:59:11.744Z,7.8
2022-11-03T13:00:17.043Z,7.9
2022-11-03T13:01:22.359Z,7.9
2022-11-03T13:02:27.660Z,7.9
2022-11-03T13:03:32.916Z,8
2022-11-03T13:04:39.299Z,7.9
2022-11-03T13:05:45.463Z,7.9
2022-11-03T13:06:51.739Z,7.9
2022-11-03T13:07:58.103Z,8
2022-11-03T13:09:04.280Z,7.9
2022-11-03T13:10:10.548Z,7.9
2022-11-03T13:11:16.895Z,7.9
2022-11-03T13:12:23.109Z,8
2022-11-03T13:13:29.414Z,8
2022-11-03T13:14:35.639Z,8
2022-11-03T13:15:41.918Z,8
2022-11-03T13:16:48.187Z,7.9
2022-11-03T13:17:53.499Z,7.9
2022-11-03T13:18:59.769Z,7.9
2022-11-03T13:20:06.018Z,7.9
2022-11-03T13:21:12.291Z,7.9
2022-11-03T13:22:18.637Z,7.9
2022-11-03T13:23:24.860Z,7.9
2022-11-03T13:24:31.107Z,8
2022-11-03T13:25:36.452Z,8
2022-11-03T13:26:41.702Z,8
2022-11-03T13:27:46.994Z,8
2022-11-03T13:28:52.290Z,8
2022-11-03T13:29:58.548Z,8
2022-11-03T13:31:04.823Z,8.1
2022-11-03T13:32:11.140Z,8.1
2022-11-03T13:33:17.370Z,8.2
2022-11-03T13:34:23.638Z,8.2
2022-11-03T13:35:29.948Z,8.2
2022-11-03T13:36:36.184Z,8.2
2022-11-03T13:37:42.458Z,8.2
2022-11-03T13:38:48.765Z,8.3
2022-11-03T13:39:55.029Z,8.3
2022-11-03T13:41:01.342Z,8.4
2022-11-03T13:42:07.577Z,8.4
2022-11-03T13:43:12.832Z,8.4
2022-11-03T13:44:19.202Z,8.4
2022-11-03T13:45:25.496Z,8.4
2022-11-03T13:46:31.751Z,8.4
2022-11-03T13:47:38.050Z,8.4
2022-11-03T13:48:44.219Z,8.4
2022-11-03T13:49:50.474Z,8.4
2022-11-03T13:50:55.841Z,8.4
2022-11-03T13:52:01.138Z,8.3
2022-11-03T13:53:07.444Z,8.3
2022-11-03T13:54:12.621Z,8.2
2022-11-03T13:55:17.910Z,8.2
2022-11-03T13:56:24.230Z,8.3
2022-11-03T13:57:30.455Z,8.3
2022-11-03T13:58:36.729Z,8.3
2022-11-03T13:59:43.014Z,8.3
2022-11-03T14:00:49.312Z,8.3
2022-11-03T14:01:55.656Z,8.3
2022-11-03T14:03:01.935Z,8.2
2022-11-03T14:04:08.173Z,8.3
2022-11-03T14:05:14.460Z,8.3
2022-11-03T14:06:20.714Z,8.3
2022-11-03T14:07:27.053Z,8.3
2022-11-03T14:08:33.307Z,8.3
2022-11-03T14:09:38.584Z,8.3
2022-11-03T14:10:44.858Z,8.4
2022-11-03T14:11:51.056Z,8.4
2022-11-03T14:12:57.416Z,8.3
2022-11-03T14:14:03.614Z,8.3
2022-11-03T14:15:09.922Z,8.4
2022-11-03T14:16:16.093Z,8.4
2022-11-03T14:17:21.482Z,8.4
2022-11-03T14:18:26.753Z,8.4
2022-11-03T14:19:32.035Z,8.4
2022-11-03T14:20:37.367Z,8.4
2022-11-03T14:21:43.595Z,8.4
2022-11-03T14:22:48.937Z,8.4
2022-11-03T14:23:55.189Z,8.4
2022-11-03T14:25:01.458Z,8.3
2022-11-03T14:26:07.797Z,8.3
2022-11-03T14:27:14.085Z,8.3
2022-11-03T14:28:20.200Z,8.3
2022-11-03T14:29:26.543Z,8.2
2022-11-03T14:30:32.816Z,8.2
2022-11-03T14:31:39.019Z,8.2
2022-11-03T14:32:45.307Z,8.1
2022-11-03T14:33:51.557Z,8.1
2022-11-03T14:34:57.867Z,8.1
2022-11-03T14:36:04.130Z,8.1
2022-11-03T14:37:09.499Z,8.1
2022-11-03T14:38:15.659Z,8.1
2022-11-03T14:39:21.931Z,8.1
2022-11-03T14:40:28.222Z,8.1
2022-11-03T14:41:34.481Z,8.1
2022-11-03T14:42:39.907Z,8.1
2022-11-03T14:43:45.069Z,8.1
2022-11-03T14:44:50.438Z,8.2
2022-11-03T14:45:55.662Z,8.2
2022-11-03T14:47:01.920Z,8.2
2022-11-03T14:48:08.244Z,8.2
2022-11-03T14:49:14.510Z,8.3
2022-11-03T14:50:20.788Z,8.3
2022-11-03T14:51:27.019Z,8.3
2022-11-03T14:52:33.308Z,8.3
2022-11-03T14:53:39.554Z,8.3
2022-11-03T14:54:45.840Z,8.3
2022-11-03T14:55:52.127Z,8.3
2022-11-03T14:56:58.375Z,8.3
2022-11-03T14:58:04.648Z,8.3
2022-11-03T14:59:10.919Z,8.3
2022-11-03T15:00:16.217Z,8.4
2022-11-03T15:01:22.506Z,8.4
2022-11-03T15:02:28.753Z,8.4
2022-11-03T15:03:35.033Z,8.4
2022-11-03T15:04:41.344Z,8.4
2022-11-03T15:05:47.590Z,8.5
2022-11-03T15:06:53.853Z,8.5
2022-11-03T15:07:59.142Z,8.5
2022-11-03T15:09:04.456Z,8.5
2022-11-03T15:10:09.729Z,8.5
2022-11-03T15:11:15.014Z,8.5
2022-11-03T15:12:21.315Z,8.6
2022-11-03T15:13:27.564Z,8.6
2022-11-03T15:14:33.835Z,8.6